createdAt,value
2023-02-16T00:01:35.765Z,19.00
2023-02-16T00:04:08.605Z,17.67
2023-02-16T00:06:35.299Z,17.33
2023-02-16T00:09:02.051Z,18.08
2023-02-16T00:11:51.037Z,18.92
2023-02-16T00:14:19.217Z,17.55
2023-02-16T00:16:45.925Z,18.23
2023-02-16T00:19:23.268Z,17.65
2023-02-16T00:21:51.678Z,17.95
2023-02-16T00:24:18.798Z,18.30
2023-02-16T00:26:46.443Z,18.45
2023-02-16T00:29:36.331Z,18.13
2023-02-16T00:32:05.787Z,17.63
2023-02-16T00:34:32.573Z,18.10
2023-02-16T00:37:01.148Z,18.15
2023-02-16T00:39:28.553Z,17.98
2023-02-16T00:41:58.747Z,17.27
2023-02-16T00:44:37.538Z,18.10
2023-02-16T00:47:32.316Z,17.92
2023-02-16T00:49:59.056Z,17.95
2023-02-16T00:52:37.332Z,18.50
2023-02-16T00:55:09.058Z,18.08
2023-02-16T00:57:58.117Z,17.35
2023-02-16T01:00:26.457Z,18.67
2023-02-16T01:02:57.256Z,17.65
2023-02-16T01:05:24.608Z,19.98
2023-02-16T01:08:09.854Z,19.17
2023-02-16T01:10:56.707Z,18.42
2023-02-16T01:13:25.058Z,18.55
2023-02-16T01:15:51.979Z,19.00
2023-02-16T01:18:19.593Z,18.00
2023-02-16T01:20:47.180Z,18.10
2023-02-16T01:23:14.480Z,17.90
2023-02-16T01:25:42.180Z,18.73
2023-02-16T01:28:18.360Z,18.70
2023-02-16T01:30:45.130Z,18.15
2023-02-16T01:33:11.847Z,18.52
2023-02-16T01:35:38.974Z,18.60
2023-02-16T01:38:05.790Z,17.77
2023-02-16T01:40:35.291Z,18.20
2023-02-16T01:43:26.971Z,19.00
2023-02-16T01:46:11.938Z,19.35
2023-02-16T01:48:38.855Z,14.02
2023-02-16T01:51:22.060Z,18.05
2023-02-16T01:54:13.855Z,18.92
2023-02-16T01:56:45.961Z,21.02
2023-02-16T01:59:29.490Z,19.25
2023-02-16T02:02:02.789Z,19.67
2023-02-16T02:04:53.633Z,18.70
2023-02-16T02:07:36.766Z,17.77
2023-02-16T02:10:11.517Z,18.05
2023-02-16T02:12:48.280Z,17.17
2023-02-16T02:15:19.731Z,17.95
2023-02-16T02:17:46.403Z,18.30
2023-02-16T02:20:21.868Z,17.50
2023-02-16T02:23:33.764Z,18.23
2023-02-16T02:26:18.839Z,17.83
2023-02-16T02:29:02.434Z,18.05
2023-02-16T02:31:53.276Z,17.23
2023-02-16T02:34:53.891Z,17.58
2023-02-16T02:37:32.578Z,18.10
2023-02-16T02:40:08.995Z,17.35
2023-02-16T02:42:41.495Z,18.02
2023-02-16T02:45:15.565Z,17.13
2023-02-16T02:47:44.854Z,17.92
2023-02-16T02:50:40.760Z,18.15
2023-02-16T02:53:13.942Z,18.30
2023-02-16T02:56:05.170Z,17.17
2023-02-16T02:58:53.582Z,17.50
2023-02-16T03:01:21.707Z,17.00
2023-02-16T03:03:52.294Z,16.20
2023-02-16T03:06:37.644Z,15.75
2023-02-16T03:09:14.354Z,15.60
2023-02-16T03:12:00.710Z,16.20
2023-02-16T03:14:34.989Z,16.23
2023-02-16T03:20:09.976Z,14.70
2023-02-16T03:22:56.608Z,16.05
2023-02-16T03:25:45.236Z,17.17
2023-02-16T03:28:31.877Z,16.15
2023-02-16T03:31:01.542Z,15.82
2023-02-16T03:33:29.475Z,16.52
2023-02-16T03:35:58.114Z,16.98
2023-02-16T03:38:24.998Z,16.27
2023-02-16T03:40:52.814Z,16.77
2023-02-16T03:43:19.655Z,16.13
2023-02-16T03:45:46.417Z,16.15
2023-02-16T03:48:13.581Z,16.45
2023-02-16T03:50:40.407Z,16.02
2023-02-16T03:53:07.391Z,17.15
2023-02-16T03:55:36.785Z,16.42
2023-02-16T03:58:04.926Z,16.35
2023-02-16T04:00:32.309Z,16.40
2023-02-16T04:02:59.023Z,17.02
2023-02-16T04:05:26.244Z,17.20
2023-02-16T04:07:53.089Z,15.82
2023-02-16T04:10:20.305Z,16.15
2023-02-16T04:12:47.034Z,16.15
2023-02-16T04:15:16.631Z,15.25
2023-02-16T04:17:43.929Z,15.80
2023-02-16T04:20:13.359Z,15.73
2023-02-16T04:22:40.269Z,15.95
2023-02-16T04:25:08.527Z,17.33
2023-02-16T04:27:36.065Z,17.23
2023-02-16T04:30:05.137Z,17.98
2023-02-16T04:32:31.880Z,18.20
2023-02-16T04:34:58.551Z,22.88
2023-02-16T04:37:25.327Z,22.65
2023-02-16T04:39:51.981Z,23.42
2023-02-16T04:42:18.639Z,19.25
2023-02-16T04:44:45.388Z,19.33
2023-02-16T04:47:12.078Z,18.70
2023-02-16T04:49:38.731Z,18.05
2023-02-16T04:52:06.021Z,17.05
2023-02-16T04:54:33.741Z,15.80
2023-02-16T04:57:00.439Z,16.17
2023-02-16T04:59:27.469Z,17.83
2023-02-16T05:01:54.453Z,18.50
2023-02-16T05:04:21.229Z,16.98
2023-02-16T05:06:47.945Z,18.98
2023-02-16T05:09:14.688Z,20.20
2023-02-16T05:11:59.741Z,24.00
2023-02-16T05:14:41.796Z,19.02
2023-02-16T05:17:10.961Z,16.05
2023-02-16T05:19:37.679Z,16.75
2023-02-16T05:22:04.519Z,16.15
2023-02-16T05:24:31.192Z,17.35
2023-02-16T05:26:57.882Z,18.88
2023-02-16T05:29:24.623Z,19.23
2023-02-16T05:31:51.408Z,19.42
2023-02-16T05:34:18.395Z,18.85
2023-02-16T05:36:45.094Z,19.50
2023-02-16T05:39:11.768Z,19.85
2023-02-16T05:41:38.468Z,20.90
2023-02-16T05:44:06.924Z,18.85
2023-02-16T05:46:36.030Z,16.35
2023-02-16T05:49:03.416Z,16.40
2023-02-16T05:51:30.239Z,15.95
2023-02-16T05:53:57.838Z,16.63
2023-02-16T05:56:25.100Z,16.10
2023-02-16T05:58:52.822Z,16.63
2023-02-16T06:01:20.365Z,17.55
2023-02-16T06:03:47.899Z,17.50
2023-02-16T06:06:14.662Z,17.80
2023-02-16T06:08:41.487Z,17.33
2023-02-16T06:11:28.645Z,16.45
2023-02-16T06:13:58.440Z,17.88
2023-02-16T06:16:27.208Z,18.02
2023-02-16T06:18:55.027Z,16.70
2023-02-16T06:21:23.013Z,16.52
2023-02-16T06:23:49.988Z,16.98
2023-02-16T06:26:17.198Z,17.00
2023-02-16T06:28:44.133Z,16.05
2023-02-16T06:31:11.281Z,16.67
2023-02-16T06:33:38.085Z,17.67
2023-02-16T06:36:05.978Z,17.35
2023-02-16T06:38:32.680Z,17.50
2023-02-16T06:40:59.384Z,18.77
2023-02-16T06:43:26.129Z,18.83
2023-02-16T06:45:53.178Z,19.02
2023-02-16T06:48:20.037Z,19.15
2023-02-16T06:50:46.769Z,18.95
2023-02-16T06:53:13.408Z,17.85
2023-02-16T06:55:40.133Z,18.45
2023-02-16T06:58:07.933Z,18.73
2023-02-16T07:00:35.278Z,17.80
2023-02-16T07:03:02.479Z,18.70
2023-02-16T07:05:29.217Z,19.55
2023-02-16T07:07:56.138Z,19.23
2023-02-16T07:10:22.816Z,19.40
2023-02-16T07:12:49.486Z,19.52
2023-02-16T07:15:16.228Z,19.13
2023-02-16T07:17:42.891Z,17.50
2023-02-16T07:20:12.543Z,17.45
2023-02-16T07:22:39.308Z,19.70
2023-02-16T07:25:06.369Z,19.40
2023-02-16T07:27:33.197Z,20.83
2023-02-16T07:29:59.899Z,20.60
2023-02-16T07:32:28.544Z,20.10
2023-02-16T07:34:55.223Z,23.60
2023-02-16T07:37:21.885Z,23.40
2023-02-16T07:39:48.550Z,21.92
2023-02-16T07:42:15.303Z,20.83
2023-02-16T07:44:41.984Z,19.65
2023-02-16T07:47:08.674Z,20.20
2023-02-16T07:49:35.399Z,19.17
2023-02-16T07:52:02.096Z,19.25
2023-02-16T07:54:28.743Z,18.42
2023-02-16T07:56:55.433Z,19.23
2023-02-16T07:59:22.142Z,19.70
2023-02-16T08:01:49.173Z,19.15
2023-02-16T08:04:15.924Z,18.42
2023-02-16T08:06:42.642Z,19.83
2023-02-16T08:09:09.362Z,19.13
2023-02-16T08:11:36.057Z,19.75
2023-02-16T08:14:02.764Z,19.52
2023-02-16T08:16:29.870Z,19.05
2023-02-16T08:18:57.734Z,19.13
2023-02-16T08:21:31.917Z,19.67
2023-02-16T08:24:05.464Z,18.48
2023-02-16T08:26:43.210Z,18.73
2023-02-16T08:29:13.280Z,18.13
2023-02-16T08:31:40.317Z,20.95
2023-02-16T08:34:07.881Z,16.15
2023-02-16T08:36:40.036Z,16.00
2023-02-16T08:39:15.030Z,15.63
2023-02-16T08:41:43.192Z,15.80
2023-02-16T08:44:11.330Z,15.95
2023-02-16T08:46:40.503Z,16.42
2023-02-16T08:49:08.633Z,16.83
2023-02-16T08:51:38.512Z,17.73
2023-02-16T08:54:08.565Z,16.80
2023-02-16T08:56:35.838Z,16.88
2023-02-16T08:59:02.704Z,16.08
2023-02-16T09:01:29.596Z,15.73
2023-02-16T09:03:56.253Z,16.30
2023-02-16T09:06:23.184Z,14.90
2023-02-16T09:08:54.625Z,14.88
2023-02-16T09:11:22.762Z,13.88
2023-02-16T09:13:50.479Z,14.90
2023-02-16T09:16:23.579Z,15.50
2023-02-16T09:18:52.139Z,14.77
2023-02-16T09:21:21.576Z,15.60
2023-02-16T09:23:50.218Z,14.40
2023-02-16T09:26:18.797Z,14.68
2023-02-16T09:28:47.210Z,15.70
2023-02-16T09:31:27.159Z,15.45
2023-02-16T09:33:56.152Z,15.20
2023-02-16T09:36:23.371Z,14.98
2023-02-16T09:38:51.361Z,15.15
2023-02-16T09:41:36.229Z,14.95
2023-02-16T09:46:35.429Z,15.48
2023-02-16T09:49:03.752Z,15.35
2023-02-16T09:51:37.993Z,24.75
2023-02-16T09:54:30.831Z,15.68
2023-02-16T09:57:08.304Z,16.02
2023-02-16T10:00:04.689Z,15.43
2023-02-16T10:02:54.750Z,15.90
2023-02-16T10:05:30.331Z,15.57
2023-02-16T10:08:05.635Z,15.40
2023-02-16T10:10:58.357Z,15.95
2023-02-16T10:13:34.702Z,16.95
2023-02-16T10:16:04.257Z,15.30
2023-02-16T10:18:42.691Z,15.38
2023-02-16T10:21:17.683Z,14.85
2023-02-16T10:24:06.074Z,16.58
2023-02-16T10:26:38.768Z,15.98
2023-02-16T10:29:19.078Z,15.25
2023-02-16T10:31:56.956Z,14.32
2023-02-16T10:34:49.266Z,14.88
2023-02-16T10:37:45.823Z,14.65
2023-02-16T10:40:12.596Z,15.82
2023-02-16T10:42:46.668Z,15.60
2023-02-16T10:45:35.868Z,15.18
2023-02-16T10:48:02.910Z,14.05
2023-02-16T10:50:42.972Z,13.57
2023-02-16T10:53:18.702Z,14.15
2023-02-16T10:55:45.793Z,14.60
2023-02-16T10:58:29.531Z,14.20
2023-02-16T11:01:10.138Z,14.68
2023-02-16T11:03:44.741Z,14.70
2023-02-16T11:08:54.135Z,14.27
2023-02-16T11:11:22.899Z,14.32
2023-02-16T11:13:57.060Z,14.77
2023-02-16T11:16:24.449Z,13.98
2023-02-16T11:19:01.367Z,14.13
2023-02-16T11:21:49.139Z,13.68
2023-02-16T11:24:29.638Z,13.35
2023-02-16T11:27:07.336Z,12.93
2023-02-16T11:29:34.518Z,13.73
2023-02-16T11:32:07.437Z,12.95
2023-02-16T11:34:37.017Z,13.35
2023-02-16T11:37:12.822Z,13.48
2023-02-16T11:39:41.427Z,13.27
2023-02-16T11:42:19.721Z,12.77
2023-02-16T11:44:56.344Z,12.18
2023-02-16T11:47:23.107Z,12.88
2023-02-16T11:50:04.460Z,12.00
2023-02-16T11:52:32.609Z,11.68
2023-02-16T11:55:01.267Z,12.38
2023-02-16T11:57:31.159Z,11.70
2023-02-16T11:59:59.806Z,11.93
2023-02-16T12:03:00.356Z,11.68
2023-02-16T12:05:47.719Z,11.82
2023-02-16T12:08:20.152Z,10.90
2023-02-16T12:10:52.910Z,11.20
2023-02-16T12:13:36.182Z,11.65
2023-02-16T12:16:34.206Z,10.95
2023-02-16T12:19:32.380Z,11.60
2023-02-16T12:22:29.229Z,10.95
2023-02-16T12:25:19.993Z,10.80
2023-02-16T12:28:03.330Z,11.15
2023-02-16T12:30:48.518Z,10.05
2023-02-16T12:33:36.384Z,11.05
2023-02-16T12:36:23.892Z,10.48
2023-02-16T12:39:02.590Z,10.93
2023-02-16T12:42:04.994Z,11.30
2023-02-16T12:44:42.614Z,10.00
2023-02-16T12:47:18.106Z,10.35
2023-02-16T12:49:56.233Z,10.27
2023-02-16T12:52:38.826Z,10.70
2023-02-16T12:55:30.939Z,9.90
2023-02-16T12:58:09.549Z,10.02
2023-02-16T13:01:00.266Z,10.48
2023-02-16T13:03:55.316Z,10.77
2023-02-16T13:06:31.152Z,11.05
2023-02-16T13:09:16.252Z,10.32
2023-02-16T13:11:46.386Z,10.40
2023-02-16T13:14:25.046Z,9.90
2023-02-16T13:16:51.668Z,9.60
2023-02-16T13:19:18.547Z,11.32
2023-02-16T13:21:54.426Z,12.80
2023-02-16T13:24:58.409Z,14.07
2023-02-16T13:27:41.998Z,10.55
2023-02-16T13:30:48.698Z,10.38
2023-02-16T13:33:40.846Z,10.98
2023-02-16T13:36:47.340Z,11.77
2023-02-16T13:43:41.980Z,10.13
2023-02-16T13:46:18.421Z,9.60
2023-02-16T13:48:50.656Z,9.57
2023-02-16T13:51:20.644Z,9.82
2023-02-16T13:53:56.159Z,9.80
2023-02-16T13:56:29.370Z,10.75
2023-02-16T13:58:58.371Z,10.68
2023-02-16T14:01:43.017Z,9.57
2023-02-16T14:04:22.047Z,9.50
2023-02-16T14:06:50.992Z,10.45
2023-02-16T14:09:17.630Z,9.43
2023-02-16T14:11:53.451Z,11.02
2023-02-16T14:14:44.845Z,10.38
2023-02-16T14:17:17.712Z,10.07
2023-02-16T14:20:02.210Z,10.60
2023-02-16T14:22:50.660Z,9.50
2023-02-16T14:25:23.312Z,9.50
2023-02-16T14:27:54.499Z,9.07
2023-02-16T14:30:35.493Z,9.27
2023-02-16T14:33:20.354Z,9.70
2023-02-16T14:38:43.397Z,8.65
2023-02-16T14:41:34.531Z,10.13
2023-02-16T14:44:04.246Z,7.88
2023-02-16T14:46:50.994Z,5.75
2023-02-16T14:49:52.425Z,5.97
2023-02-16T14:52:45.916Z,5.28
2023-02-16T14:55:23.082Z,5.10
2023-02-16T14:58:02.181Z,5.57
2023-02-16T15:00:34.740Z,6.07
2023-02-16T15:03:02.927Z,5.57
2023-02-16T15:05:33.080Z,5.28
2023-02-16T15:08:23.900Z,5.53
2023-02-16T15:10:56.179Z,6.03
2023-02-16T15:13:26.678Z,6.00
2023-02-16T15:15:56.686Z,7.10
2023-02-16T15:18:29.077Z,7.88
2023-02-16T15:21:00.784Z,6.47
2023-02-16T15:23:34.554Z,6.07
2023-02-16T15:26:09.175Z,6.72
2023-02-16T15:28:39.139Z,7.13
2023-02-16T15:31:18.242Z,8.77
2023-02-16T15:33:55.628Z,7.82
2023-02-16T15:36:33.829Z,7.10
2023-02-16T15:39:05.117Z,7.90
2023-02-16T15:41:38.276Z,7.55
2023-02-16T15:44:07.661Z,25.73
2023-02-16T15:46:40.309Z,7.13
2023-02-16T15:49:15.156Z,7.60
2023-02-16T15:51:43.155Z,7.43
2023-02-16T15:54:28.189Z,7.15
2023-02-16T15:56:56.904Z,8.02
2023-02-16T15:59:41.253Z,7.93
2023-02-16T16:02:34.350Z,7.65
2023-02-16T16:05:04.120Z,9.45
2023-02-16T16:07:37.081Z,12.55
2023-02-16T16:10:15.806Z,15.32
2023-02-16T16:12:43.739Z,12.05
2023-02-16T16:15:18.199Z,20.38
2023-02-16T16:20:38.082Z,13.88
2023-02-16T16:23:23.976Z,26.45
2023-02-16T16:25:51.342Z,12.98
2023-02-16T16:28:27.307Z,12.90
2023-02-16T16:31:14.457Z,15.98
2023-02-16T16:33:56.166Z,11.95
2023-02-16T16:36:35.104Z,9.20
2023-02-16T16:39:11.373Z,9.75
2023-02-16T16:41:40.266Z,9.27
2023-02-16T16:44:12.694Z,9.68
2023-02-16T16:46:40.178Z,10.35
2023-02-16T16:49:15.734Z,9.35
2023-02-16T16:51:43.233Z,9.15
2023-02-16T16:54:21.834Z,10.63
2023-02-16T16:56:48.533Z,10.05
2023-02-16T16:59:15.201Z,9.45
2023-02-16T17:01:42.518Z,16.58
2023-02-16T17:04:09.328Z,12.10
2023-02-16T17:06:40.262Z,12.15
2023-02-16T17:09:06.980Z,14.15
2023-02-16T17:11:36.841Z,12.77
2023-02-16T17:14:16.243Z,12.10
2023-02-16T17:16:48.380Z,10.40
2023-02-16T17:19:17.302Z,11.07
2023-02-16T17:21:45.356Z,12.20
2023-02-16T17:24:12.770Z,11.07
2023-02-16T17:26:39.984Z,11.48
2023-02-16T17:29:07.473Z,11.73
2023-02-16T17:31:34.368Z,11.45
2023-02-16T17:34:01.346Z,12.30
2023-02-16T17:36:28.401Z,11.98
2023-02-16T17:38:55.191Z,12.43
2023-02-16T17:41:24.189Z,12.52
2023-02-16T17:43:51.360Z,12.90
2023-02-16T17:46:19.318Z,12.65
2023-02-16T17:48:51.969Z,12.75
2023-02-16T17:51:20.568Z,13.75
2023-02-16T17:53:47.489Z,13.43
2023-02-16T17:56:16.659Z,13.70
2023-02-16T17:58:43.511Z,21.85
2023-02-16T18:01:13.802Z,16.55
2023-02-16T18:03:40.866Z,16.25
2023-02-16T18:06:08.064Z,15.40
2023-02-16T18:08:34.783Z,15.07
2023-02-16T18:11:04.328Z,14.63
2023-02-16T18:13:31.597Z,15.57
2023-02-16T18:16:01.790Z,15.30
2023-02-16T18:18:28.573Z,16.20
2023-02-16T18:20:55.325Z,17.15
2023-02-16T18:23:22.017Z,17.48
2023-02-16T18:25:48.738Z,18.55
2023-02-16T18:28:21.224Z,19.48
2023-02-16T18:30:49.339Z,18.48
2023-02-16T18:33:23.927Z,17.20
2023-02-16T18:35:57.570Z,18.90
2023-02-16T18:38:24.876Z,17.67
2023-02-16T18:40:53.520Z,18.77
2023-02-16T18:43:21.293Z,18.00
2023-02-16T18:45:48.313Z,18.50
2023-02-16T18:48:14.995Z,17.85
2023-02-16T18:50:41.747Z,17.77
2023-02-16T18:53:08.419Z,17.95
2023-02-16T18:55:35.656Z,17.27
2023-02-16T18:58:07.420Z,16.80
2023-02-16T19:00:34.976Z,16.83
2023-02-16T19:03:01.799Z,17.23
2023-02-16T19:05:28.540Z,16.30
2023-02-16T19:07:55.324Z,17.67
2023-02-16T19:10:22.097Z,17.92
2023-02-16T19:12:48.845Z,17.23
2023-02-16T19:15:15.565Z,17.73
2023-02-16T19:17:42.402Z,18.15
2023-02-16T19:20:12.297Z,18.20
2023-02-16T19:22:39.060Z,19.70
2023-02-16T19:25:06.863Z,19.65
2023-02-16T19:27:33.735Z,19.13
2023-02-16T19:30:00.567Z,19.48
2023-02-16T19:32:27.383Z,20.10
2023-02-16T19:34:54.076Z,18.50
2023-02-16T19:37:21.121Z,19.90
2023-02-16T19:39:48.146Z,20.00
2023-02-16T19:42:15.046Z,19.13
2023-02-16T19:44:41.855Z,19.27
2023-02-16T19:47:08.867Z,17.73
2023-02-16T19:49:36.587Z,16.13
2023-02-16T19:52:04.324Z,16.25
2023-02-16T19:54:34.777Z,17.10
2023-02-16T19:57:02.837Z,18.23
2023-02-16T19:59:30.651Z,17.02
2023-02-16T20:01:58.844Z,17.00
2023-02-16T20:04:25.768Z,17.48
2023-02-16T20:06:54.490Z,16.95
2023-02-16T20:09:22.032Z,18.13
2023-02-16T20:11:48.936Z,17.77
2023-02-16T20:14:15.992Z,18.13
2023-02-16T20:16:42.842Z,18.17
2023-02-16T20:19:09.639Z,17.38
2023-02-16T20:21:36.560Z,18.20
2023-02-16T20:24:05.987Z,18.98
2023-02-16T20:26:36.044Z,17.35
2023-02-16T20:29:05.237Z,18.35
2023-02-16T20:31:42.644Z,18.50
2023-02-16T20:34:10.433Z,18.13
2023-02-16T20:40:25.304Z,16.70
2023-02-16T20:42:51.909Z,16.90
2023-02-16T20:45:18.729Z,17.35
2023-02-16T20:47:45.410Z,17.88
2023-02-16T20:50:12.118Z,17.33
2023-02-16T20:52:39.837Z,17.92
2023-02-16T20:55:07.737Z,16.52
2023-02-16T20:57:35.622Z,16.30
2023-02-16T21:00:12.965Z,14.73
2023-02-16T21:02:40.641Z,16.35
2023-02-16T21:05:11.856Z,16.88
2023-02-16T21:07:38.476Z,16.05
2023-02-16T21:10:08.982Z,15.85
2023-02-16T21:12:35.776Z,16.25
2023-02-16T21:15:02.477Z,15.82
2023-02-16T21:17:29.525Z,16.38
2023-02-16T21:19:56.332Z,15.98
2023-02-16T21:22:24.681Z,16.15
2023-02-16T21:24:52.327Z,16.08
2023-02-16T21:27:18.978Z,15.82
2023-02-16T21:29:45.730Z,15.95
2023-02-16T21:32:12.631Z,15.45
2023-02-16T21:34:39.338Z,16.42
2023-02-16T21:37:05.965Z,16.45
2023-02-16T21:39:51.026Z,15.50
2023-02-16T21:42:17.692Z,16.17
2023-02-16T21:44:44.278Z,16.98
2023-02-16T21:47:33.017Z,16.95
2023-02-16T21:49:59.817Z,16.73
2023-02-16T21:52:27.204Z,16.27
2023-02-16T21:55:19.912Z,16.20
2023-02-16T21:57:46.590Z,15.70
2023-02-16T22:00:15.434Z,16.75
2023-02-16T22:02:42.152Z,15.75
2023-02-16T22:05:12.144Z,15.55
2023-02-16T22:07:38.866Z,16.60
2023-02-16T22:10:06.460Z,15.55
2023-02-16T22:12:33.275Z,15.20
2023-02-16T22:14:59.994Z,15.88
2023-02-16T22:17:26.786Z,15.90
2023-02-16T22:19:53.463Z,16.20
2023-02-16T22:22:20.264Z,17.48
2023-02-16T22:24:46.950Z,16.52
2023-02-16T22:27:13.691Z,16.50
2023-02-16T22:29:40.379Z,16.17
2023-02-16T22:32:07.126Z,16.23
2023-02-16T22:34:34.064Z,16.50
2023-02-16T22:37:00.801Z,17.35
2023-02-16T22:39:27.526Z,17.73
2023-02-16T22:41:54.182Z,16.48
2023-02-16T22:44:21.017Z,17.27
2023-02-16T22:46:48.204Z,16.50
2023-02-16T22:49:15.059Z,17.17
2023-02-16T22:51:41.888Z,17.17
2023-02-16T22:54:08.580Z,16.83
2023-02-16T22:56:35.371Z,18.33
2023-02-16T22:59:02.110Z,17.02
2023-02-16T23:01:29.901Z,17.55
2023-02-16T23:03:58.420Z,16.50
2023-02-16T23:06:37.076Z,16.23
2023-02-16T23:09:18.722Z,15.43
2023-02-16T23:11:46.238Z,15.18
2023-02-16T23:14:19.025Z,14.68
2023-02-16T23:16:51.643Z,14.35
2023-02-16T23:19:21.220Z,14.63
2023-02-16T23:21:48.754Z,14.15
2023-02-16T23:24:18.622Z,13.82
2023-02-16T23:26:46.301Z,14.07
2023-02-16T23:29:14.009Z,13.73
2023-02-16T23:31:42.802Z,13.80
2023-02-16T23:34:11.043Z,13.27
2023-02-16T23:36:38.800Z,13.38
2023-02-16T23:39:09.060Z,13.45
2023-02-16T23:41:36.238Z,13.45
2023-02-16T23:44:04.314Z,14.15
2023-02-16T23:46:31.176Z,13.32
2023-02-16T23:48:58.196Z,12.70
2023-02-16T23:51:25.591Z,12.95
2023-02-16T23:53:52.506Z,13.77
2023-02-16T23:56:28.100Z,13.80
2023-02-16T23:58:59.709Z,13.85
